sensor_id;sensor_type;location;lat;lon;timestamp;P1;durP1;ratioP1;P2;durP2;ratioP2
13002;SDS011;66869;57.706;11.922;2023-04-24T00:01:47;1.35;;;0.95;;
13002;SDS011;66869;57.706;11.922;2023-04-24T00:04:12;1.38;;;1.27;;
13002;SDS011;66869;57.706;11.922;2023-04-24T00:06:41;1.35;;;1.25;;
13002;SDS011;66869;57.706;11.922;2023-04-24T00:09:08;1.10;;;1.00;;
13002;SDS011;66869;57.706;11.922;2023-04-24T00:11:35;1.10;;;1.10;;
13002;SDS011;66869;57.706;11.922;2023-04-24T00:14:00;1.23;;;1.13;;
13002;SDS011;66869;57.706;11.922;2023-04-24T00:16:25;1.13;;;1.02;;
13002;SDS011;66869;57.706;11.922;2023-04-24T00:18:51;1.48;;;1.38;;
13002;SDS011;66869;57.706;11.922;2023-04-24T00:21:17;1.30;;;1.05;;
13002;SDS011;66869;57.706;11.922;2023-04-24T00:23:43;1.10;;;1.10;;
13002;SDS011;66869;57.706;11.922;2023-04-24T00:26:08;1.33;;;1.10;;
13002;SDS011;66869;57.706;11.922;2023-04-24T00:28:34;1.23;;;1.13;;
13002;SDS011;66869;57.706;11.922;2023-04-24T00:30:59;1.13;;;1.13;;
13002;SDS011;66869;57.706;11.922;2023-04-24T00:33:24;1.48;;;1.38;;
13002;SDS011;66869;57.706;11.922;2023-04-24T00:35:50;1.40;;;1.30;;
13002;SDS011;66869;57.706;11.922;2023-04-24T00:38:15;1.23;;;1.13;;
13002;SDS011;66869;57.706;11.922;2023-04-24T00:40:40;0.85;;;0.85;;
13002;SDS011;66869;57.706;11.922;2023-04-24T00:43:05;1.55;;;1.20;;
13002;SDS011;66869;57.706;11.922;2023-04-24T00:45:31;1.00;;;1.00;;
13002;SDS011;66869;57.706;11.922;2023-04-24T00:47:56;1.13;;;1.08;;
13002;SDS011;66869;57.706;11.922;2023-04-24T00:50:21;1.30;;;1.20;;
13002;SDS011;66869;57.706;11.922;2023-04-24T00:52:47;1.10;;;1.00;;
13002;SDS011;66869;57.706;11.922;2023-04-24T00:55:12;0.95;;;0.95;;
13002;SDS011;66869;57.706;11.922;2023-04-24T00:57:37;1.20;;;1.10;;
13002;SDS011;66869;57.706;11.922;2023-04-24T01:00:03;1.10;;;1.00;;
13002;SDS011;66869;57.706;11.922;2023-04-24T01:02:30;2.42;;;1.35;;
13002;SDS011;66869;57.706;11.922;2023-04-24T01:04:59;1.58;;;1.30;;
13002;SDS011;66869;57.706;11.922;2023-04-24T01:07:25;1.15;;;0.98;;
13002;SDS011;66869;57.706;11.922;2023-04-24T01:09:50;1.20;;;1.10;;
13002;SDS011;66869;57.706;11.922;2023-04-24T01:12:17;1.60;;;1.50;;
13002;SDS011;66869;57.706;11.922;2023-04-24T01:14:42;2.25;;;1.00;;
13002;SDS011;66869;57.706;11.922;2023-04-24T01:17:07;1.45;;;1.10;;
13002;SDS011;66869;57.706;11.922;2023-04-24T01:19:34;1.33;;;1.00;;
13002;SDS011;66869;57.706;11.922;2023-04-24T01:21:59;1.17;;;1.08;;
13002;SDS011;66869;57.706;11.922;2023-04-24T01:24:26;1.90;;;0.98;;
13002;SDS011;66869;57.706;11.922;2023-04-24T01:26:52;1.65;;;0.98;;
13002;SDS011;66869;57.706;11.922;2023-04-24T01:29:17;2.22;;;1.45;;
13002;SDS011;66869;57.706;11.922;2023-04-24T01:31:42;2.95;;;0.98;;
13002;SDS011;66869;57.706;11.922;2023-04-24T01:34:08;1.55;;;1.17;;
13002;SDS011;66869;57.706;11.922;2023-04-24T01:36:33;2.22;;;1.02;;
13002;SDS011;66869;57.706;11.922;2023-04-24T01:39:00;2.42;;;1.00;;
13002;SDS011;66869;57.706;11.922;2023-04-24T01:41:25;1.17;;;1.02;;
13002;SDS011;66869;57.706;11.922;2023-04-24T01:43:50;1.77;;;0.80;;
13002;SDS011;66869;57.706;11.922;2023-04-24T01:46:16;1.05;;;0.98;;
13002;SDS011;66869;57.706;11.922;2023-04-24T01:48:41;0.82;;;0.75;;
13002;SDS011;66869;57.706;11.922;2023-04-24T01:51:06;1.65;;;1.05;;
13002;SDS011;66869;57.706;11.922;2023-04-24T01:53:32;1.20;;;1.10;;
13002;SDS011;66869;57.706;11.922;2023-04-24T01:55:57;1.00;;;1.00;;
13002;SDS011;66869;57.706;11.922;2023-04-24T01:58:22;2.35;;;1.30;;
13002;SDS011;66869;57.706;11.922;2023-04-24T02:00:48;1.80;;;0.95;;
13002;SDS011;66869;57.706;11.922;2023-04-24T02:03:13;1.10;;;1.02;;
13002;SDS011;66869;57.706;11.922;2023-04-24T02:05:38;1.30;;;1.20;;
13002;SDS011;66869;57.706;11.922;2023-04-24T02:08:04;0.95;;;0.95;;
13002;SDS011;66869;57.706;11.922;2023-04-24T02:10:29;1.20;;;1.10;;
13002;SDS011;66869;57.706;11.922;2023-04-24T02:12:54;1.10;;;1.10;;
13002;SDS011;66869;57.706;11.922;2023-04-24T02:15:20;1.50;;;1.40;;
13002;SDS011;66869;57.706;11.922;2023-04-24T02:17:45;1.10;;;0.90;;
13002;SDS011;66869;57.706;11.922;2023-04-24T02:20:10;1.33;;;1.23;;
13002;SDS011;66869;57.706;11.922;2023-04-24T02:22:36;2.05;;;1.45;;
13002;SDS011;66869;57.706;11.922;2023-04-24T02:25:01;1.35;;;1.25;;
13002;SDS011;66869;57.706;11.922;2023-04-24T02:27:27;1.10;;;1.00;;
13002;SDS011;66869;57.706;11.922;2023-04-24T02:29:52;1.70;;;1.25;;
13002;SDS011;66869;57.706;11.922;2023-04-24T02:32:17;1.35;;;1.25;;
13002;SDS011;66869;57.706;11.922;2023-04-24T02:34:42;3.30;;;1.08;;
13002;SDS011;66869;57.706;11.922;2023-04-24T02:37:08;2.30;;;1.10;;
13002;SDS011;66869;57.706;11.922;2023-04-24T02:39:33;3.15;;;1.17;;
13002;SDS011;66869;57.706;11.922;2023-04-24T02:41:58;1.33;;;0.88;;
13002;SDS011;66869;57.706;11.922;2023-04-24T02:44:24;2.90;;;1.23;;
13002;SDS011;66869;57.706;11.922;2023-04-24T02:46:49;1.15;;;1.05;;
13002;SDS011;66869;57.706;11.922;2023-04-24T02:49:14;2.25;;;0.90;;
13002;SDS011;66869;57.706;11.922;2023-04-24T02:51:40;1.23;;;1.20;;
13002;SDS011;66869;57.706;11.922;2023-04-24T02:54:06;1.85;;;0.73;;
13002;SDS011;66869;57.706;11.922;2023-04-24T02:56:32;1.13;;;1.10;;
13002;SDS011;66869;57.706;11.922;2023-04-24T02:58:57;1.10;;;1.10;;
13002;SDS011;66869;57.706;11.922;2023-04-24T03:01:22;0.75;;;0.75;;
13002;SDS011;66869;57.706;11.922;2023-04-24T03:03:47;1.10;;;1.10;;
13002;SDS011;66869;57.706;11.922;2023-04-24T03:06:13;1.60;;;0.82;;
13002;SDS011;66869;57.706;11.922;2023-04-24T03:08:38;0.85;;;0.85;;
13002;SDS011;66869;57.706;11.922;2023-04-24T03:11:03;1.10;;;1.10;;
13002;SDS011;66869;57.706;11.922;2023-04-24T03:13:28;0.90;;;0.90;;
13002;SDS011;66869;57.706;11.922;2023-04-24T03:15:54;0.82;;;0.82;;
13002;SDS011;66869;57.706;11.922;2023-04-24T03:18:19;1.90;;;1.10;;
13002;SDS011;66869;57.706;11.922;2023-04-24T03:20:45;0.90;;;0.90;;
13002;SDS011;66869;57.706;11.922;2023-04-24T03:23:11;1.05;;;1.02;;
13002;SDS011;66869;57.706;11.922;2023-04-24T03:25:36;2.25;;;1.10;;
13002;SDS011;66869;57.706;11.922;2023-04-24T03:28:01;2.20;;;1.20;;
13002;SDS011;66869;57.706;11.922;2023-04-24T03:30:27;1.30;;;1.10;;
13002;SDS011;66869;57.706;11.922;2023-04-24T03:32:52;2.58;;;1.08;;
13002;SDS011;66869;57.706;11.922;2023-04-24T03:35:17;0.70;;;0.70;;
13002;SDS011;66869;57.706;11.922;2023-04-24T03:37:42;1.30;;;1.15;;
13002;SDS011;66869;57.706;11.922;2023-04-24T03:40:08;1.48;;;0.90;;
13002;SDS011;66869;57.706;11.922;2023-04-24T03:42:33;0.82;;;0.80;;
13002;SDS011;66869;57.706;11.922;2023-04-24T03:44:59;1.55;;;1.30;;
13002;SDS011;66869;57.706;11.922;2023-04-24T03:47:24;2.20;;;1.10;;
13002;SDS011;66869;57.706;11.922;2023-04-24T03:49:49;2.08;;;1.10;;
13002;SDS011;66869;57.706;11.922;2023-04-24T03:52:15;1.30;;;1.17;;
13002;SDS011;66869;57.706;11.922;2023-04-24T03:54:40;1.58;;;0.90;;
13002;SDS011;66869;57.706;11.922;2023-04-24T03:57:05;1.20;;;1.10;;
13002;SDS011;66869;57.706;11.922;2023-04-24T03:59:31;0.80;;;0.80;;
13002;SDS011;66869;57.706;11.922;2023-04-24T04:01:56;2.47;;;1.10;;
13002;SDS011;66869;57.706;11.922;2023-04-24T04:04:21;1.20;;;1.10;;
13002;SDS011;66869;57.706;11.922;2023-04-24T04:06:46;0.98;;;0.88;;
13002;SDS011;66869;57.706;11.922;2023-04-24T04:09:12;4.22;;;0.77;;
13002;SDS011;66869;57.706;11.922;2023-04-24T04:11:37;0.85;;;0.85;;
13002;SDS011;66869;57.706;11.922;2023-04-24T04:14:02;2.15;;;1.35;;
13002;SDS011;66869;57.706;11.922;2023-04-24T04:16:28;1.10;;;1.00;;
13002;SDS011;66869;57.706;11.922;2023-04-24T04:18:53;2.28;;;1.08;;
13002;SDS011;66869;57.706;11.922;2023-04-24T04:21:18;2.13;;;1.10;;
13002;SDS011;66869;57.706;11.922;2023-04-24T04:23:44;1.00;;;0.90;;
13002;SDS011;66869;57.706;11.922;2023-04-24T04:26:10;1.10;;;0.98;;
13002;SDS011;66869;57.706;11.922;2023-04-24T04:28:36;1.90;;;1.23;;
13002;SDS011;66869;57.706;11.922;2023-04-24T04:31:02;1.88;;;1.00;;
13002;SDS011;66869;57.706;11.922;2023-04-24T04:33:28;3.72;;;1.10;;
13002;SDS011;66869;57.706;11.922;2023-04-24T04:35:53;1.10;;;1.00;;
13002;SDS011;66869;57.706;11.922;2023-04-24T04:38:21;1.52;;;0.95;;
13002;SDS011;66869;57.706;11.922;2023-04-24T04:40:47;1.05;;;0.95;;
13002;SDS011;66869;57.706;11.922;2023-04-24T04:43:12;1.00;;;0.80;;
13002;SDS011;66869;57.706;11.922;2023-04-24T04:45:39;1.17;;;0.80;;
13002;SDS011;66869;57.706;11.922;2023-04-24T04:48:06;0.70;;;0.70;;
13002;SDS011;66869;57.706;11.922;2023-04-24T04:50:32;0.90;;;0.90;;
13002;SDS011;66869;57.706;11.922;2023-04-24T04:52:58;0.73;;;0.73;;
13002;SDS011;66869;57.706;11.922;2023-04-24T04:55:23;0.68;;;0.68;;
13002;SDS011;66869;57.706;11.922;2023-04-24T04:57:48;1.60;;;1.10;;
13002;SDS011;66869;57.706;11.922;2023-04-24T05:00:14;1.20;;;1.00;;
13002;SDS011;66869;57.706;11.922;2023-04-24T05:02:40;2.15;;;0.60;;
13002;SDS011;66869;57.706;11.922;2023-04-24T05:05:06;0.50;;;0.50;;
13002;SDS011;66869;57.706;11.922;2023-04-24T05:07:31;1.73;;;0.90;;
13002;SDS011;66869;57.706;11.922;2023-04-24T05:09:56;0.60;;;0.60;;
13002;SDS011;66869;57.706;11.922;2023-04-24T05:12:22;22.63;;;5.03;;
13002;SDS011;66869;57.706;11.922;2023-04-24T05:14:47;38.90;;;8.27;;
13002;SDS011;66869;57.706;11.922;2023-04-24T05:17:12;39.33;;;8.02;;
13002;SDS011;66869;57.706;11.922;2023-04-24T05:19:37;42.80;;;9.63;;
13002;SDS011;66869;57.706;11.922;2023-04-24T05:22:03;49.53;;;10.93;;
13002;SDS011;66869;57.706;11.922;2023-04-24T05:24:31;52.58;;;11.50;;
13002;SDS011;66869;57.706;11.922;2023-04-24T05:26:56;39.22;;;7.75;;
13002;SDS011;66869;57.706;11.922;2023-04-24T05:29:23;27.05;;;7.13;;
13002;SDS011;66869;57.706;11.922;2023-04-24T05:31:49;26.58;;;5.78;;
13002;SDS011;66869;57.706;11.922;2023-04-24T05:34:14;23.48;;;6.82;;
13002;SDS011;66869;57.706;11.922;2023-04-24T05:36:41;23.98;;;5.50;;
13002;SDS011;66869;57.706;11.922;2023-04-24T05:39:07;18.63;;;5.15;;
13002;SDS011;66869;57.706;11.922;2023-04-24T05:41:33;23.85;;;5.22;;
13002;SDS011;66869;57.706;11.922;2023-04-24T05:43:58;18.55;;;4.22;;
13002;SDS011;66869;57.706;11.922;2023-04-24T05:46:24;16.35;;;4.20;;
13002;SDS011;66869;57.706;11.922;2023-04-24T05:48:49;14.32;;;3.80;;
13002;SDS011;66869;57.706;11.922;2023-04-24T05:51:14;13.55;;;3.30;;
13002;SDS011;66869;57.706;11.922;2023-04-24T05:53:40;10.98;;;4.05;;
13002;SDS011;66869;57.706;11.922;2023-04-24T05:56:05;13.95;;;3.58;;
13002;SDS011;66869;57.706;11.922;2023-04-24T05:58:30;7.38;;;3.03;;
13002;SDS011;66869;57.706;11.922;2023-04-24T06:00:55;7.63;;;2.88;;
13002;SDS011;66869;57.706;11.922;2023-04-24T06:03:22;8.65;;;2.90;;
13002;SDS011;66869;57.706;11.922;2023-04-24T06:05:49;10.98;;;2.47;;
13002;SDS011;66869;57.706;11.922;2023-04-24T06:08:14;7.30;;;2.50;;
13002;SDS011;66869;57.706;11.922;2023-04-24T06:10:40;7.70;;;2.58;;
13002;SDS011;66869;57.706;11.922;2023-04-24T06:13:05;5.53;;;2.05;;
13002;SDS011;66869;57.706;11.922;2023-04-24T06:15:31;8.10;;;2.40;;
13002;SDS011;66869;57.706;11.922;2023-04-24T06:17:57;5.32;;;2.25;;
13002;SDS011;66869;57.706;11.922;2023-04-24T06:20:22;8.30;;;2.25;;
13002;SDS011;66869;57.706;11.922;2023-04-24T06:22:47;7.03;;;2.22;;
13002;SDS011;66869;57.706;11.922;2023-04-24T06:25:13;3.63;;;1.80;;
13002;SDS011;66869;57.706;11.922;2023-04-24T06:27:38;3.42;;;1.55;;
13002;SDS011;66869;57.706;11.922;2023-04-24T06:30:04;3.80;;;1.40;;
13002;SDS011;66869;57.706;11.922;2023-04-24T06:32:29;3.05;;;1.75;;
13002;SDS011;66869;57.706;11.922;2023-04-24T06:34:55;5.28;;;1.65;;
13002;SDS011;66869;57.706;11.922;2023-04-24T06:37:21;2.08;;;1.33;;
13002;SDS011;66869;57.706;11.922;2023-04-24T06:39:46;4.55;;;1.50;;
13002;SDS011;66869;57.706;11.922;2023-04-24T06:42:11;2.95;;;1.40;;
13002;SDS011;66869;57.706;11.922;2023-04-24T06:44:37;3.47;;;1.20;;
13002;SDS011;66869;57.706;11.922;2023-04-24T06:47:06;2.53;;;1.20;;
13002;SDS011;66869;57.706;11.922;2023-04-24T06:49:32;3.80;;;1.55;;
13002;SDS011;66869;57.706;11.922;2023-04-24T06:51:57;2.03;;;1.02;;
13002;SDS011;66869;57.706;11.922;2023-04-24T06:54:22;2.33;;;1.20;;
13002;SDS011;66869;57.706;11.922;2023-04-24T06:56:48;1.77;;;1.00;;
13002;SDS011;66869;57.706;11.922;2023-04-24T06:59:14;1.63;;;0.90;;
13002;SDS011;66869;57.706;11.922;2023-04-24T07:01:40;3.65;;;1.10;;
13002;SDS011;66869;57.706;11.922;2023-04-24T07:04:05;1.25;;;1.02;;
13002;SDS011;66869;57.706;11.922;2023-04-24T07:06:30;2.28;;;1.20;;
13002;SDS011;66869;57.706;11.922;2023-04-24T07:08:55;2.17;;;1.33;;
13002;SDS011;66869;57.706;11.922;2023-04-24T07:11:21;2.35;;;1.10;;
13002;SDS011;66869;57.706;11.922;2023-04-24T07:13:47;1.40;;;0.85;;
13002;SDS011;66869;57.706;11.922;2023-04-24T07:16:12;1.30;;;0.98;;
13002;SDS011;66869;57.706;11.922;2023-04-24T07:18:37;2.10;;;1.00;;
13002;SDS011;66869;57.706;11.922;2023-04-24T07:21:04;1.15;;;0.80;;
13002;SDS011;66869;57.706;11.922;2023-04-24T07:23:29;0.80;;;0.80;;
13002;SDS011;66869;57.706;11.922;2023-04-24T07:25:55;0.60;;;0.60;;
13002;SDS011;66869;57.706;11.922;2023-04-24T07:28:21;1.25;;;0.80;;
13002;SDS011;66869;57.706;11.922;2023-04-24T07:30:46;1.08;;;0.95;;
13002;SDS011;66869;57.706;11.922;2023-04-24T07:33:11;1.42;;;1.02;;
13002;SDS011;66869;57.706;11.922;2023-04-24T07:35:38;0.70;;;0.70;;
13002;SDS011;66869;57.706;11.922;2023-04-24T07:38:03;1.70;;;1.10;;
13002;SDS011;66869;57.706;11.922;2023-04-24T07:40:28;1.58;;;1.00;;
13002;SDS011;66869;57.706;11.922;2023-04-24T07:42:54;1.38;;;0.93;;
13002;SDS011;66869;57.706;11.922;2023-04-24T07:45:19;1.10;;;0.95;;
13002;SDS011;66869;57.706;11.922;2023-04-24T07:47:44;1.10;;;0.80;;
13002;SDS011;66869;57.706;11.922;2023-04-24T07:50:11;0.70;;;0.70;;
13002;SDS011;66869;57.706;11.922;2023-04-24T07:52:36;1.00;;;0.90;;
13002;SDS011;66869;57.706;11.922;2023-04-24T07:55:01;0.70;;;0.60;;
13002;SDS011;66869;57.706;11.922;2023-04-24T07:57:27;1.38;;;0.90;;
13002;SDS011;66869;57.706;11.922;2023-04-24T07:59:52;1.02;;;0.93;;
13002;SDS011;66869;57.706;11.922;2023-04-24T08:02:18;0.80;;;0.75;;
13002;SDS011;66869;57.706;11.922;2023-04-24T08:04:43;1.02;;;0.80;;
13002;SDS011;66869;57.706;11.922;2023-04-24T08:07:08;1.00;;;0.90;;
13002;SDS011;66869;57.706;11.922;2023-04-24T08:09:33;1.55;;;1.00;;
13002;SDS011;66869;57.706;11.922;2023-04-24T08:11:59;1.23;;;0.85;;
13002;SDS011;66869;57.706;11.922;2023-04-24T08:14:24;0.93;;;0.75;;
13002;SDS011;66869;57.706;11.922;2023-04-24T08:16:50;0.98;;;0.88;;
13002;SDS011;66869;57.706;11.922;2023-04-24T08:19:15;1.58;;;0.65;;
13002;SDS011;66869;57.706;11.922;2023-04-24T08:21:40;0.70;;;0.70;;
13002;SDS011;66869;57.706;11.922;2023-04-24T08:24:05;0.65;;;0.65;;
13002;SDS011;66869;57.706;11.922;2023-04-24T08:26:32;0.70;;;0.70;;
13002;SDS011;66869;57.706;11.922;2023-04-24T08:28:58;0.70;;;0.70;;
13002;SDS011;66869;57.706;11.922;2023-04-24T08:31:23;1.10;;;0.73;;
13002;SDS011;66869;57.706;11.922;2023-04-24T08:33:50;1.10;;;0.95;;
13002;SDS011;66869;57.706;11.922;2023-04-24T08:36:15;1.13;;;1.00;;
13002;SDS011;66869;57.706;11.922;2023-04-24T08:38:40;0.85;;;0.80;;
13002;SDS011;66869;57.706;11.922;2023-04-24T08:41:06;0.80;;;0.80;;
13002;SDS011;66869;57.706;11.922;2023-04-24T08:43:32;0.70;;;0.70;;
13002;SDS011;66869;57.706;11.922;2023-04-24T08:45:59;0.60;;;0.60;;
13002;SDS011;66869;57.706;11.922;2023-04-24T08:48:24;0.93;;;0.93;;
13002;SDS011;66869;57.706;11.922;2023-04-24T08:50:50;0.93;;;0.73;;
13002;SDS011;66869;57.706;11.922;2023-04-24T08:53:16;0.88;;;0.88;;
13002;SDS011;66869;57.706;11.922;2023-04-24T08:55:43;0.75;;;0.75;;
13002;SDS011;66869;57.706;11.922;2023-04-24T08:58:08;0.77;;;0.63;;
13002;SDS011;66869;57.706;11.922;2023-04-24T09:00:34;0.88;;;0.70;;
13002;SDS011;66869;57.706;11.922;2023-04-24T09:03:00;1.08;;;0.50;;
13002;SDS011;66869;57.706;11.922;2023-04-24T09:05:26;0.85;;;0.60;;
13002;SDS011;66869;57.706;11.922;2023-04-24T09:07:55;3.33;;;0.77;;
13002;SDS011;66869;57.706;11.922;2023-04-24T09:10:22;0.85;;;0.60;;
13002;SDS011;66869;57.706;11.922;2023-04-24T09:12:47;0.45;;;0.45;;
13002;SDS011;66869;57.706;11.922;2023-04-24T09:15:12;0.63;;;0.63;;
13002;SDS011;66869;57.706;11.922;2023-04-24T09:17:38;0.60;;;0.60;;
13002;SDS011;66869;57.706;11.922;2023-04-24T09:20:03;1.42;;;0.70;;
13002;SDS011;66869;57.706;11.922;2023-04-24T09:22:32;0.57;;;0.57;;
13002;SDS011;66869;57.706;11.922;2023-04-24T09:25:04;0.47;;;0.40;;
13002;SDS011;66869;57.706;11.922;2023-04-24T09:27:31;0.70;;;0.60;;
13002;SDS011;66869;57.706;11.922;2023-04-24T09:29:56;0.60;;;0.60;;
13002;SDS011;66869;57.706;11.922;2023-04-24T09:32:22;0.75;;;0.70;;
13002;SDS011;66869;57.706;11.922;2023-04-24T09:34:49;0.73;;;0.52;;
13002;SDS011;66869;57.706;11.922;2023-04-24T09:37:28;1.58;;;0.82;;
13002;SDS011;66869;57.706;11.922;2023-04-24T09:42:38;0.50;;;0.50;;
13002;SDS011;66869;57.706;11.922;2023-04-24T09:45:07;0.45;;;0.45;;
13002;SDS011;66869;57.706;11.922;2023-04-24T09:47:39;0.52;;;0.52;;
13002;SDS011;66869;57.706;11.922;2023-04-24T09:50:14;0.70;;;0.70;;
13002;SDS011;66869;57.706;11.922;2023-04-24T09:52:41;1.15;;;0.85;;
13002;SDS011;66869;57.706;11.922;2023-04-24T09:55:10;0.85;;;0.68;;
13002;SDS011;66869;57.706;11.922;2023-04-24T09:57:40;0.65;;;0.55;;
13002;SDS011;66869;57.706;11.922;2023-04-24T10:00:11;0.98;;;0.82;;
13002;SDS011;66869;57.706;11.922;2023-04-24T10:02:37;0.60;;;0.60;;
13002;SDS011;66869;57.706;11.922;2023-04-24T10:05:02;0.70;;;0.70;;
13002;SDS011;66869;57.706;11.922;2023-04-24T10:07:27;0.70;;;0.70;;
13002;SDS011;66869;57.706;11.922;2023-04-24T10:09:53;1.25;;;0.60;;
13002;SDS011;66869;57.706;11.922;2023-04-24T10:12:18;0.43;;;0.40;;
13002;SDS011;66869;57.706;11.922;2023-04-24T10:14:45;0.70;;;0.70;;
13002;SDS011;66869;57.706;11.922;2023-04-24T10:17:11;0.50;;;0.50;;
13002;SDS011;66869;57.706;11.922;2023-04-24T10:19:37;0.95;;;0.50;;
13002;SDS011;66869;57.706;11.922;2023-04-24T10:22:02;0.45;;;0.45;;
13002;SDS011;66869;57.706;11.922;2023-04-24T10:24:28;0.70;;;0.70;;
13002;SDS011;66869;57.706;11.922;2023-04-24T10:26:54;0.60;;;0.60;;
13002;SDS011;66869;57.706;11.922;2023-04-24T10:29:19;0.73;;;0.73;;
13002;SDS011;66869;57.706;11.922;2023-04-24T10:31:46;0.98;;;0.88;;
13002;SDS011;66869;57.706;11.922;2023-04-24T10:34:12;0.50;;;0.50;;
13002;SDS011;66869;57.706;11.922;2023-04-24T10:36:41;0.73;;;0.73;;
13002;SDS011;66869;57.706;11.922;2023-04-24T10:39:08;0.60;;;0.60;;
13002;SDS011;66869;57.706;11.922;2023-04-24T10:41:36;0.70;;;0.70;;
13002;SDS011;66869;57.706;11.922;2023-04-24T10:46:30;0.60;;;0.60;;
13002;SDS011;66869;57.706;11.922;2023-04-24T10:48:56;0.65;;;0.50;;
13002;SDS011;66869;57.706;11.922;2023-04-24T10:51:22;0.60;;;0.60;;
13002;SDS011;66869;57.706;11.922;2023-04-24T10:53:47;0.50;;;0.50;;
13002;SDS011;66869;57.706;11.922;2023-04-24T10:56:15;0.52;;;0.52;;
13002;SDS011;66869;57.706;11.922;2023-04-24T11:01:08;0.60;;;0.60;;
13002;SDS011;66869;57.706;11.922;2023-04-24T11:03:34;0.80;;;0.80;;
13002;SDS011;66869;57.706;11.922;2023-04-24T11:08:32;0.50;;;0.50;;
13002;SDS011;66869;57.706;11.922;2023-04-24T11:11:13;0.70;;;0.70;;
13002;SDS011;66869;57.706;11.922;2023-04-24T11:18:51;0.70;;;0.70;;
13002;SDS011;66869;57.706;11.922;2023-04-24T11:21:19;0.75;;;0.70;;
13002;SDS011;66869;57.706;11.922;2023-04-24T11:23:45;0.63;;;0.63;;
13002;SDS011;66869;57.706;11.922;2023-04-24T11:26:32;0.65;;;0.65;;
13002;SDS011;66869;57.706;11.922;2023-04-24T11:29:06;0.75;;;0.75;;
13002;SDS011;66869;57.706;11.922;2023-04-24T11:31:35;0.60;;;0.60;;
13002;SDS011;66869;57.706;11.922;2023-04-24T11:34:08;0.63;;;0.63;;
13002;SDS011;66869;57.706;11.922;2023-04-24T11:36:34;0.68;;;0.68;;
13002;SDS011;66869;57.706;11.922;2023-04-24T11:39:00;0.60;;;0.60;;
13002;SDS011;66869;57.706;11.922;2023-04-24T11:41:26;0.60;;;0.60;;
13002;SDS011;66869;57.706;11.922;2023-04-24T11:43:52;0.57;;;0.47;;
13002;SDS011;66869;57.706;11.922;2023-04-24T11:46:18;0.60;;;0.60;;
13002;SDS011;66869;57.706;11.922;2023-04-24T11:48:46;0.60;;;0.60;;
13002;SDS011;66869;57.706;11.922;2023-04-24T11:51:12;0.68;;;0.68;;
13002;SDS011;66869;57.706;11.922;2023-04-24T11:53:37;0.70;;;0.70;;
13002;SDS011;66869;57.706;11.922;2023-04-24T11:56:03;0.60;;;0.60;;
13002;SDS011;66869;57.706;11.922;2023-04-24T11:58:28;0.43;;;0.40;;
13002;SDS011;66869;57.706;11.922;2023-04-24T12:00:59;0.50;;;0.50;;
13002;SDS011;66869;57.706;11.922;2023-04-24T12:03:26;0.63;;;0.63;;
13002;SDS011;66869;57.706;11.922;2023-04-24T12:05:51;0.55;;;0.55;;
13002;SDS011;66869;57.706;11.922;2023-04-24T12:08:37;0.40;;;0.40;;
13002;SDS011;66869;57.706;11.922;2023-04-24T12:11:02;0.60;;;0.60;;
13002;SDS011;66869;57.706;11.922;2023-04-24T12:13:29;0.43;;;0.43;;
13002;SDS011;66869;57.706;11.922;2023-04-24T12:15:54;0.60;;;0.60;;
13002;SDS011;66869;57.706;11.922;2023-04-24T12:18:23;0.50;;;0.50;;
13002;SDS011;66869;57.706;11.922;2023-04-24T12:20:49;0.60;;;0.60;;
13002;SDS011;66869;57.706;11.922;2023-04-24T12:23:14;0.73;;;0.73;;
13002;SDS011;66869;57.706;11.922;2023-04-24T12:25:40;1.55;;;0.60;;
13002;SDS011;66869;57.706;11.922;2023-04-24T12:30:32;0.43;;;0.43;;
13002;SDS011;66869;57.706;11.922;2023-04-24T12:32:58;0.70;;;0.68;;
13002;SDS011;66869;57.706;11.922;2023-04-24T12:35:25;0.60;;;0.40;;
13002;SDS011;66869;57.706;11.922;2023-04-24T12:37:50;0.65;;;0.65;;
13002;SDS011;66869;57.706;11.922;2023-04-24T12:40:16;0.38;;;0.38;;
13002;SDS011;66869;57.706;11.922;2023-04-24T12:42:43;0.40;;;0.40;;
13002;SDS011;66869;57.706;11.922;2023-04-24T12:45:08;0.40;;;0.40;;
13002;SDS011;66869;57.706;11.922;2023-04-24T12:47:34;0.57;;;0.28;;
13002;SDS011;66869;57.706;11.922;2023-04-24T12:50:00;0.50;;;0.50;;
13002;SDS011;66869;57.706;11.922;2023-04-24T12:52:26;0.50;;;0.50;;
13002;SDS011;66869;57.706;11.922;2023-04-24T12:54:52;0.50;;;0.50;;
13002;SDS011;66869;57.706;11.922;2023-04-24T12:57:18;0.40;;;0.40;;
13002;SDS011;66869;57.706;11.922;2023-04-24T12:59:43;0.52;;;0.52;;
13002;SDS011;66869;57.706;11.922;2023-04-24T13:02:09;0.60;;;0.60;;
13002;SDS011;66869;57.706;11.922;2023-04-24T13:04:35;0.60;;;0.60;;
13002;SDS011;66869;57.706;11.922;2023-04-24T13:07:00;0.73;;;0.52;;
13002;SDS011;66869;57.706;11.922;2023-04-24T13:09:25;0.40;;;0.40;;
13002;SDS011;66869;57.706;11.922;2023-04-24T13:11:51;0.60;;;0.60;;
13002;SDS011;66869;57.706;11.922;2023-04-24T13:14:16;0.40;;;0.40;;
13002;SDS011;66869;57.706;11.922;2023-04-24T13:16:41;0.95;;;0.60;;
13002;SDS011;66869;57.706;11.922;2023-04-24T13:19:06;0.40;;;0.40;;
13002;SDS011;66869;57.706;11.922;2023-04-24T13:21:32;0.40;;;0.40;;
13002;SDS011;66869;57.706;11.922;2023-04-24T13:23:57;0.30;;;0.30;;
13002;SDS011;66869;57.706;11.922;2023-04-24T13:26:22;0.40;;;0.40;;
13002;SDS011;66869;57.706;11.922;2023-04-24T13:28:48;0.50;;;0.50;;
13002;SDS011;66869;57.706;11.922;2023-04-24T13:31:13;0.47;;;0.47;;
13002;SDS011;66869;57.706;11.922;2023-04-24T13:33:38;0.32;;;0.32;;
13002;SDS011;66869;57.706;11.922;2023-04-24T13:36:05;0.50;;;0.50;;
13002;SDS011;66869;57.706;11.922;2023-04-24T13:38:30;0.50;;;0.50;;
13002;SDS011;66869;57.706;11.922;2023-04-24T13:40:55;0.63;;;0.50;;
13002;SDS011;66869;57.706;11.922;2023-04-24T13:43:21;0.40;;;0.40;;
13002;SDS011;66869;57.706;11.922;2023-04-24T13:45:46;0.52;;;0.52;;
13002;SDS011;66869;57.706;11.922;2023-04-24T13:48:11;0.60;;;0.60;;
13002;SDS011;66869;57.706;11.922;2023-04-24T13:50:38;0.52;;;0.52;;
13002;SDS011;66869;57.706;11.922;2023-04-24T13:53:03;0.50;;;0.50;;
13002;SDS011;66869;57.706;11.922;2023-04-24T13:55:29;0.50;;;0.50;;
13002;SDS011;66869;57.706;11.922;2023-04-24T13:57:54;0.57;;;0.57;;
13002;SDS011;66869;57.706;11.922;2023-04-24T14:00:20;0.70;;;0.60;;
13002;SDS011;66869;57.706;11.922;2023-04-24T14:02:46;0.65;;;0.65;;
13002;SDS011;66869;57.706;11.922;2023-04-24T14:05:12;0.75;;;0.75;;
13002;SDS011;66869;57.706;11.922;2023-04-24T14:07:37;0.80;;;0.80;;
13002;SDS011;66869;57.706;11.922;2023-04-24T14:10:02;0.45;;;0.45;;
13002;SDS011;66869;57.706;11.922;2023-04-24T14:12:28;0.60;;;0.60;;
13002;SDS011;66869;57.706;11.922;2023-04-24T14:14:53;0.80;;;0.68;;
13002;SDS011;66869;57.706;11.922;2023-04-24T14:17:18;0.60;;;0.60;;
13002;SDS011;66869;57.706;11.922;2023-04-24T14:19:44;0.65;;;0.60;;
13002;SDS011;66869;57.706;11.922;2023-04-24T14:22:09;0.80;;;0.80;;
13002;SDS011;66869;57.706;11.922;2023-04-24T14:24:34;0.75;;;0.75;;
13002;SDS011;66869;57.706;11.922;2023-04-24T14:27:01;0.68;;;0.68;;
13002;SDS011;66869;57.706;11.922;2023-04-24T14:29:26;0.73;;;0.73;;
13002;SDS011;66869;57.706;11.922;2023-04-24T14:31:52;0.50;;;0.50;;
13002;SDS011;66869;57.706;11.922;2023-04-24T14:34:17;0.50;;;0.50;;
13002;SDS011;66869;57.706;11.922;2023-04-24T14:36:43;1.30;;;0.85;;
13002;SDS011;66869;57.706;11.922;2023-04-24T14:39:08;0.82;;;0.82;;
13002;SDS011;66869;57.706;11.922;2023-04-24T14:41:33;0.40;;;0.40;;
13002;SDS011;66869;57.706;11.922;2023-04-24T14:44:02;0.60;;;0.60;;